New Wells, Missouri
Current Conditions -  °F | °C
As of 3:53 AM on Saturday 22 Nov 2014 (Local Time) from KCGI Reporting Station
Overcast Overcast  
Wind Chill: 45°   Ceiling: 7000
Heat Index: 49°   Visibility: 10mi
Dew Point: 42°   Wind: 9mph
Humidity: 77%   Direction: 170°S
Pressure: 30.23"   Gusts: NA
Location:  37.5371°N, 89.5821°W
Report Text: KCGI 220953Z AUTO 17008KT 10SM OVC070 09/06 A3023 RMK AO2 SLP236 T00940056 TSNO
Loading
Personal Weather Stations






























Interactive Weather Map New forecast layout! Learn more

10-Day Weather Forecast

Advertisements
Track Severe Weather on mobile